Time;durP1;ratioP1;P1;durP2;ratioP2;P2;SDS_P1;SDS_P2;PMS_P1;PMS_P2;Temp;Humidity;BMP_temperature;BMP_pressure;BME280_temperature;BME280_humidity;BME280_pressure;Samples;Min_cycle;Max_cycle;Signal;HPM_P1;HPM_P2
2022/11/18 00:01:45;;;;;;;7.47;3.17;;;8.20;99.90;;;;;;5058019;28;20487;-67
2022/11/18 00:04:12;;;;;;;6.00;3.00;;;8.30;99.90;;;;;;5058953;28;20465;-67
2022/11/18 00:06:41;;;;;;;7.03;3.80;;;8.30;99.90;;;;;;5059176;28;21945;-67
2022/11/18 00:09:09;;;;;;;9.57;3.80;;;8.30;99.90;;;;;;5055131;28;20444;-67
2022/11/18 00:14:23;;;;;;;4.60;3.10;;;8.40;99.90;;;;;;5058480;28;20453;-67
2022/11/18 00:16:52;;;;;;;7.87;3.47;;;8.30;99.90;;;;;;5058070;28;20468;-67
2022/11/18 00:19:21;;;;;;;5.47;2.90;;;8.40;99.90;;;;;;5056832;28;20854;-67
2022/11/18 00:21:51;;;;;;;7.93;3.40;;;8.40;99.90;;;;;;5038694;28;20467;-67
2022/11/18 00:24:22;;;;;;;6.27;3.97;;;8.40;99.90;;;;;;5038734;28;20463;-67
2022/11/18 00:26:49;;;;;;;6.27;3.70;;;8.40;42.30;;;;;;5038495;28;20486;-67
2022/11/18 00:29:17;;;;;;;5.83;3.23;;;8.40;1.00;;;;;;5037516;28;20557;-67
2022/11/18 00:31:44;;;;;;;6.53;3.30;;;8.50;1.00;;;;;;5054425;28;20436;-67
2022/11/18 00:34:15;;;;;;;7.30;3.20;;;8.50;99.90;;;;;;5058237;28;20436;-67
2022/11/18 00:36:43;;;;;;;11.93;3.30;;;8.50;1.00;;;;;;5058526;28;20526;-67
2022/11/18 00:39:14;;;;;;;5.77;2.97;;;8.50;99.90;;;;;;5057844;28;20470;-67
2022/11/18 00:44:29;;;;;;;6.00;3.70;;;8.30;99.90;;;;;;5037998;28;20470;-67
2022/11/18 00:46:56;;;;;;;3.73;3.00;;;8.20;99.90;;;;;;5037899;28;20440;-67
2022/11/18 00:49:24;;;;;;;4.73;3.03;;;8.20;99.90;;;;;;5037767;28;20438;-67
2022/11/18 00:51:51;;;;;;;5.50;2.93;;;8.20;1.00;;;;;;5047587;28;20535;-67
2022/11/18 00:54:20;;;;;;;6.90;3.80;;;8.10;99.90;;;;;;5058053;28;20536;-68
2022/11/18 00:56:47;;;;;;;10.33;3.43;;;8.10;1.00;;;;;;5056668;28;20471;-66
2022/11/18 00:59:16;;;;;;;3.43;2.70;;;8.00;1.00;;;;;;5057713;28;20433;-67
2022/11/18 01:01:43;;;;;;;7.33;3.17;;;8.10;1.00;;;;;;5051473;28;20465;-66
2022/11/18 01:04:10;;;;;;;8.67;4.10;;;8.10;1.00;;;;;;5039051;28;20440;-67
2022/11/18 01:06:38;;;;;;;6.07;3.50;;;8.10;1.00;;;;;;5037332;28;20465;-66
2022/11/18 01:09:05;;;;;;;10.93;4.00;;;8.10;99.90;;;;;;5037339;28;20466;-66
2022/11/18 01:14:19;;;;;;;9.97;3.80;;;8.20;99.90;;;;;;5057934;28;20492;-66
2022/11/18 01:16:50;;;;;;;5.20;3.40;;;8.30;99.90;;;;;;5057184;28;20490;-68
2022/11/18 01:19:17;;;;;;;5.37;3.20;;;8.30;99.90;;;;;;5058003;28;20466;-66
2022/11/18 01:21:44;;;;;;;4.67;2.90;;;8.20;99.90;;;;;;5056957;28;20462;-67
2022/11/18 01:24:15;;;;;;;5.07;3.70;;;8.20;99.90;;;;;;5039524;28;20540;-66
2022/11/18 01:26:43;;;;;;;8.10;3.60;;;8.20;99.90;;;;;;5037851;28;20490;-66
2022/11/18 01:29:11;;;;;;;4.97;3.10;;;8.10;99.90;;;;;;5037030;28;20438;-66
2022/11/18 01:31:41;;;;;;;7.80;3.50;;;8.20;99.90;;;;;;5037430;28;20467;-66
2022/11/18 01:34:09;;;;;;;5.37;3.50;;;8.20;99.90;;;;;;5050460;28;20432;-67
2022/11/18 01:36:36;;;;;;;5.67;3.20;;;8.20;99.90;;;;;;5055698;28;20572;-67
2022/11/18 01:39:04;;;;;;;7.70;3.10;;;8.10;99.90;;;;;;5056149;28;20533;-67
2022/11/18 01:41:31;;;;;;;6.83;3.80;;;8.20;99.90;;;;;;5057053;28;20506;-67
2022/11/18 01:44:04;;;;;;;7.47;4.10;;;8.20;99.90;;;;;;5047780;28;20762;-67
2022/11/18 01:46:35;;;;;;;4.40;2.90;;;8.20;99.90;;;;;;5037126;28;20445;-67
2022/11/18 01:49:06;;;;;;;6.30;3.80;;;8.20;99.90;;;;;;5037280;28;20838;-67
2022/11/18 01:51:37;;;;;;;6.73;4.30;;;8.10;99.90;;;;;;5037123;28;20746;-67
2022/11/18 01:54:08;;;;;;;5.73;3.30;;;8.10;99.90;;;;;;5042640;28;20443;-67
2022/11/18 01:56:41;;;;;;;7.60;3.60;;;8.20;99.90;;;;;;5057060;28;20492;-67
2022/11/18 01:59:14;;;;;;;6.80;3.20;;;8.10;99.90;;;;;;5056407;28;20488;-67
2022/11/18 02:01:41;;;;;;;5.87;4.00;;;8.10;99.90;;;;;;5056854;28;20588;-67
2022/11/18 02:04:14;;;;;;;7.03;3.90;;;8.10;99.90;;;;;;5053830;28;20473;-67
2022/11/18 02:06:46;;;;;;;4.60;3.90;;;8.10;99.90;;;;;;5037257;28;20554;-68
2022/11/18 02:09:15;;;;;;;6.60;3.30;;;8.10;99.90;;;;;;5036973;28;20494;-68
2022/11/18 02:14:30;;;;;;;5.60;3.90;;;8.10;99.90;;;;;;5039353;28;20454;-67
2022/11/18 02:17:08;;;;;;;9.43;3.80;;;8.00;99.90;;;;;;5057832;28;20465;-68
2022/11/18 02:20:01;;;;;;;6.67;4.13;;;8.00;99.90;;;;;;5041953;28;20463;-67
2022/11/18 02:22:46;;;;;;;5.43;3.30;;;8.00;99.90;;;;;;5046729;28;20754;-67
2022/11/18 02:25:25;;;;;;;8.60;4.00;;;8.10;99.90;;;;;;5055523;28;20485;-67
2022/11/18 02:28:15;;;;;;;5.70;3.30;;;8.10;99.90;;;;;;5056655;28;20503;-67
2022/11/18 02:30:52;;;;;;;4.43;2.93;;;8.10;99.90;;;;;;5056917;28;20480;-67
2022/11/18 02:33:24;;;;;;;9.00;4.00;;;8.20;99.90;;;;;;5056650;28;20523;-67
2022/11/18 02:35:59;;;;;;;8.13;3.77;;;8.10;99.90;;;;;;5050827;28;20455;-67
2022/11/18 02:38:30;;;;;;;7.60;3.10;;;8.10;99.90;;;;;;5036628;28;20720;-67
2022/11/18 02:41:02;;;;;;;5.40;3.33;;;8.00;99.90;;;;;;5036144;28;20463;-67
2022/11/18 02:43:37;;;;;;;8.13;3.63;;;8.00;99.90;;;;;;5036659;28;20749;-67
2022/11/18 02:46:09;;;;;;;10.13;4.43;;;8.00;99.90;;;;;;5039286;28;20439;-67
2022/11/18 02:48:42;;;;;;;5.70;3.73;;;7.90;99.90;;;;;;5056538;28;20437;-67
2022/11/18 02:51:13;;;;;;;5.67;3.70;;;7.70;99.90;;;;;;5055995;28;20778;-67
2022/11/18 02:53:43;;;;;;;5.33;3.17;;;7.70;99.90;;;;;;5058354;28;20929;-67
2022/11/18 02:56:11;;;;;;;8.00;4.07;;;7.70;99.90;;;;;;5059746;28;20462;-67
2022/11/18 02:58:38;;;;;;;8.40;4.07;;;7.80;99.90;;;;;;5040179;28;20463;-67
2022/11/18 03:01:07;;;;;;;8.73;3.20;;;7.80;99.90;;;;;;5040138;28;20463;-67
2022/11/18 03:03:36;;;;;;;9.13;3.73;;;7.90;99.90;;;;;;5044315;28;20499;-67
2022/11/18 03:06:11;;;;;;;6.20;3.80;;;7.90;99.90;;;;;;5040096;28;20467;-67
2022/11/18 03:08:42;;;;;;;5.17;3.00;;;7.90;99.90;;;;;;5044744;28;20557;-67
2022/11/18 03:11:18;;;;;;;4.97;3.50;;;8.00;99.90;;;;;;5052986;28;20531;-67
2022/11/18 03:14:01;;;;;;;4.23;3.53;;;8.00;99.90;;;;;;5060240;28;20515;-67
2022/11/18 03:16:36;;;;;;;6.70;3.53;;;8.00;99.90;;;;;;5059769;28;20497;-67
2022/11/18 03:19:10;;;;;;;5.03;3.03;;;8.00;99.90;;;;;;5042481;28;20462;-67
2022/11/18 03:21:47;;;;;;;7.13;4.10;;;8.00;99.90;;;;;;5040216;28;20521;-67
2022/11/18 03:24:21;;;;;;;6.50;3.43;;;8.00;99.90;;;;;;5039871;28;20463;-67
2022/11/18 03:26:53;;;;;;;7.23;3.50;;;8.00;99.90;;;;;;5039420;28;20572;-67
2022/11/18 03:29:26;;;;;;;4.63;3.73;;;8.00;99.90;;;;;;5053480;28;20515;-67
2022/11/18 03:32:00;;;;;;;6.27;3.90;;;8.10;99.90;;;;;;5039664;28;20550;-67
2022/11/18 03:34:31;;;;;;;6.80;3.53;;;8.10;99.90;;;;;;5039861;28;20470;-67
2022/11/18 03:37:02;;;;;;;4.23;3.43;;;8.10;99.90;;;;;;5038969;28;20503;-67
2022/11/18 03:39:35;;;;;;;5.60;3.87;;;8.20;99.90;;;;;;5051131;28;20891;-68
2022/11/18 03:42:09;;;;;;;7.27;4.60;;;8.20;99.90;;;;;;5042093;28;20465;-67
2022/11/18 03:44:41;;;;;;;7.30;3.30;;;8.20;99.90;;;;;;5039803;28;20436;-67
2022/11/18 03:47:15;;;;;;;5.20;3.80;;;8.20;99.90;;;;;;5039237;28;20521;-67
2022/11/18 03:49:45;;;;;;;6.83;4.17;;;8.30;99.90;;;;;;5048904;28;20462;-67
2022/11/18 03:52:17;;;;;;;6.17;3.50;;;8.30;99.90;;;;;;5057457;28;20437;-67
2022/11/18 03:54:47;;;;;;;10.20;3.17;;;8.20;99.90;;;;;;5058722;28;20433;-67
2022/11/18 03:57:20;;;;;;;7.20;3.40;;;8.30;99.90;;;;;;5059315;28;20475;-67
2022/11/18 03:59:52;;;;;;;6.57;3.50;;;8.30;99.90;;;;;;5050593;28;20537;-67
2022/11/18 04:02:25;;;;;;;4.53;3.63;;;8.30;99.90;;;;;;5038996;28;20483;-67
2022/11/18 04:04:56;;;;;;;4.97;3.90;;;8.20;99.90;;;;;;5037955;28;20769;-66
2022/11/18 04:07:31;;;;;;;5.30;3.50;;;8.30;99.90;;;;;;5039311;28;20470;-66
2022/11/18 04:10:02;;;;;;;10.57;4.97;;;8.30;99.90;;;;;;5043143;28;20489;-67
2022/11/18 04:12:33;;;;;;;5.33;3.37;;;8.30;99.90;;;;;;5059034;28;20466;-67
2022/11/18 04:15:01;;;;;;;4.97;3.03;;;8.20;99.90;;;;;;5057887;28;20468;-66
2022/11/18 04:17:31;;;;;;;6.17;3.33;;;8.20;99.90;;;;;;5058421;28;20494;-67
2022/11/18 04:19:59;;;;;;;4.27;3.40;;;8.20;99.90;;;;;;5056393;28;20451;-66
2022/11/18 04:22:28;;;;;;;5.37;3.43;;;8.30;99.90;;;;;;5038575;28;20463;-67
2022/11/18 04:24:55;;;;;;;6.83;4.00;;;8.30;99.90;;;;;;5038251;28;20697;-67
2022/11/18 04:27:22;;;;;;;4.97;3.20;;;8.30;99.90;;;;;;5038222;28;20466;-67
2022/11/18 04:29:50;;;;;;;7.53;3.70;;;8.30;99.90;;;;;;5038254;28;20463;-67
2022/11/18 04:32:18;;;;;;;5.80;3.50;;;8.40;99.90;;;;;;5049653;28;20921;-67
2022/11/18 04:34:46;;;;;;;6.57;4.40;;;8.40;99.90;;;;;;5058047;28;20464;-67
2022/11/18 04:37:13;;;;;;;9.47;3.77;;;8.40;99.90;;;;;;5057948;28;20518;-67
2022/11/18 04:39:46;;;;;;;5.93;4.23;;;8.40;99.90;;;;;;5058168;28;20516;-66
2022/11/18 04:42:13;;;;;;;8.47;3.40;;;8.40;99.90;;;;;;5051457;28;20507;-67
2022/11/18 04:44:42;;;;;;;5.30;3.73;;;8.40;99.90;;;;;;5047339;28;20432;-67
2022/11/18 04:47:09;;;;;;;9.70;4.33;;;8.40;99.90;;;;;;5057188;28;20465;-67
2022/11/18 04:49:37;;;;;;;7.37;3.70;;;8.30;99.90;;;;;;5057544;28;20469;-66
2022/11/18 04:52:06;;;;;;;8.07;4.23;;;8.30;99.90;;;;;;5058120;28;20557;-66
2022/11/18 04:54:34;;;;;;;7.10;4.37;;;8.30;99.90;;;;;;5056871;28;20436;-66
2022/11/18 04:57:01;;;;;;;6.13;4.20;;;8.30;99.90;;;;;;5057621;28;20963;-66
2022/11/18 04:59:30;;;;;;;6.60;4.37;;;8.30;99.90;;;;;;5057080;28;20540;-66
2022/11/18 05:01:59;;;;;;;5.50;3.47;;;8.30;99.90;;;;;;5049995;28;20495;-66
2022/11/18 05:04:28;;;;;;;10.10;4.30;;;8.30;99.90;;;;;;5056863;28;20462;-66
2022/11/18 05:06:56;;;;;;;6.83;3.43;;;8.30;99.90;;;;;;5056490;28;20469;-66
2022/11/18 05:09:25;;;;;;;7.93;4.33;;;8.30;99.90;;;;;;5048350;28;20483;-66
2022/11/18 05:14:39;;;;;;;9.17;3.80;;;8.30;99.90;;;;;;5063810;28;20434;-66
2022/11/18 05:17:09;;;;;;;6.67;4.00;;;8.40;99.90;;;;;;5067562;28;20452;-67
2022/11/18 05:19:38;;;;;;;8.87;4.23;;;8.40;99.90;;;;;;5067283;28;20447;-66
2022/11/18 05:22:06;;;;;;;12.07;6.00;;;8.40;99.90;;;;;;5062959;28;20465;-66
2022/11/18 05:24:34;;;;;;;5.17;3.80;;;8.40;99.90;;;;;;5057524;28;20952;-66
2022/11/18 05:27:02;;;;;;;5.50;3.30;;;8.40;99.90;;;;;;5061621;28;20771;-66
2022/11/18 05:29:32;;;;;;;5.33;4.23;;;8.40;99.90;;;;;;5057058;28;20871;-66
2022/11/18 05:31:59;;;;;;;6.80;3.80;;;8.50;99.90;;;;;;5071181;28;20461;-66
2022/11/18 05:34:26;;;;;;;6.33;3.80;;;8.50;99.90;;;;;;5077297;28;20462;-66
2022/11/18 05:36:54;;;;;;;5.50;3.70;;;8.40;99.90;;;;;;5060443;28;20887;-66
2022/11/18 05:39:21;;;;;;;7.63;4.23;;;8.40;99.90;;;;;;5057173;28;20520;-66
2022/11/18 05:44:34;;;;;;;9.80;4.33;;;8.40;99.90;;;;;;5037167;28;20416;-66
2022/11/18 05:47:02;;;;;;;11.53;5.83;;;8.30;99.90;;;;;;5041646;28;20444;-66
2022/11/18 05:49:29;;;;;;;8.37;4.97;;;8.30;99.90;;;;;;5059311;28;20454;-66
2022/11/18 05:51:56;;;;;;;9.20;4.47;;;8.40;99.90;;;;;;5056384;28;20458;-66
2022/11/18 05:54:24;;;;;;;5.87;3.83;;;8.30;99.90;;;;;;5055310;28;20447;-66
2022/11/18 05:56:54;;;;;;;7.17;3.93;;;8.40;99.90;;;;;;5055169;28;20489;-66
2022/11/18 05:59:21;;;;;;;5.93;4.07;;;8.40;99.90;;;;;;5052102;28;20942;-66
2022/11/18 06:01:57;;;;;;;6.80;4.17;;;8.40;99.90;;;;;;5036607;28;20490;-66
2022/11/18 06:04:29;;;;;;;9.23;4.67;;;8.40;99.90;;;;;;5037490;28;20463;-66
2022/11/18 06:07:00;;;;;;;6.90;4.67;;;8.40;99.90;;;;;;5052342;28;20444;-66
2022/11/18 06:09:32;;;;;;;8.07;3.83;;;8.50;99.90;;;;;;5054152;28;20464;-66
2022/11/18 06:12:02;;;;;;;5.90;4.13;;;8.40;99.90;;;;;;5064065;28;20465;-66
2022/11/18 06:14:35;;;;;;;7.40;4.00;;;8.40;99.90;;;;;;5060001;28;20443;-66
2022/11/18 06:17:06;;;;;;;7.57;4.90;;;8.50;99.90;;;;;;5065456;28;20455;-66
2022/11/18 06:19:34;;;;;;;5.73;4.33;;;8.50;99.90;;;;;;5064432;28;20453;-66
2022/11/18 06:22:03;;;;;;;8.17;5.70;;;8.50;99.90;;;;;;5063364;28;20831;-66
2022/11/18 06:24:31;;;;;;;10.23;5.70;;;8.50;99.90;;;;;;5059545;28;20480;-65
2022/11/18 06:27:01;;;;;;;11.33;5.90;;;8.50;99.90;;;;;;5055494;28;20883;-65
2022/11/18 06:29:31;;;;;;;9.70;6.30;;;8.40;99.90;;;;;;5042883;28;20595;-65
2022/11/18 06:31:58;;;;;;;7.97;5.30;;;8.40;99.90;;;;;;5042335;28;20740;-66
2022/11/18 06:34:28;;;;;;;6.90;5.70;;;8.30;99.90;;;;;;5041443;28;20443;-65
2022/11/18 06:36:55;;;;;;;7.10;5.20;;;8.30;99.90;;;;;;5039301;28;20441;-65
2022/11/18 06:39:23;;;;;;;8.10;5.00;;;8.20;99.90;;;;;;5058504;28;20493;-66
2022/11/18 06:41:55;;;;;;;7.70;6.03;;;8.20;99.90;;;;;;5051926;28;20899;-65
2022/11/18 06:44:23;;;;;;;9.83;5.20;;;8.00;99.90;;;;;;5047655;28;20539;-66
2022/11/18 06:46:56;;;;;;;9.40;5.77;;;7.90;99.90;;;;;;5055687;28;20805;-63
2022/11/18 06:49:23;;;;;;;8.00;5.47;;;8.00;99.90;;;;;;5059772;28;20439;-63
2022/11/18 06:51:51;;;;;;;9.03;6.30;;;8.00;99.90;;;;;;5060327;28;20462;-63
2022/11/18 06:54:18;;;;;;;13.37;5.83;;;8.00;99.90;;;;;;5056299;28;20460;-63
2022/11/18 06:56:48;;;;;;;10.73;6.10;;;8.10;99.90;;;;;;5039937;28;20495;-63
2022/11/18 06:59:21;;;;;;;7.97;5.87;;;8.10;99.90;;;;;;5039841;28;20487;-63
2022/11/18 07:01:51;;;;;;;14.60;7.20;;;8.30;99.90;;;;;;5039974;28;20513;-63
2022/11/18 07:04:19;;;;;;;10.43;6.23;;;8.30;99.90;;;;;;5039317;28;20441;-63
2022/11/18 07:06:48;;;;;;;10.80;6.40;;;8.40;99.90;;;;;;5039505;28;20495;-63
2022/11/18 07:09:16;;;;;;;8.63;5.73;;;8.50;99.90;;;;;;5039816;28;20524;-63
2022/11/18 07:11:46;;;;;;;7.87;6.10;;;8.50;99.90;;;;;;5039689;28;20780;-63
2022/11/18 07:14:14;;;;;;;12.33;7.50;;;8.50;99.90;;;;;;5039937;28;20477;-63
2022/11/18 07:16:43;;;;;;;11.77;6.30;;;8.50;99.90;;;;;;5055207;28;20455;-63
2022/11/18 07:19:13;;;;;;;8.43;5.93;;;8.60;99.90;;;;;;5056113;28;20497;-63
2022/11/18 07:21:47;;;;;;;13.00;8.00;;;8.60;99.90;;;;;;5038619;28;20461;-63
2022/11/18 07:24:16;;;;;;;19.97;15.27;;;8.60;99.90;;;;;;5038169;28;20488;-63
2022/11/18 07:26:43;;;;;;;22.80;14.30;;;8.70;99.90;;;;;;5050487;28;20463;-63
2022/11/18 07:29:11;;;;;;;22.20;13.77;;;8.70;99.90;;;;;;5058335;28;20450;-63
2022/11/18 07:31:38;;;;;;;21.30;15.10;;;8.70;99.90;;;;;;5058166;28;20903;-63
2022/11/18 07:34:06;;;;;;;20.70;14.20;;;8.70;99.90;;;;;;5059307;28;20515;-63
2022/11/18 07:36:36;;;;;;;12.93;9.43;;;8.80;99.90;;;;;;5051829;28;20459;-63
2022/11/18 07:39:04;;;;;;;10.30;7.53;;;8.80;99.90;;;;;;5037377;28;21073;-63
2022/11/18 07:41:35;;;;;;;11.53;7.07;;;8.80;99.90;;;;;;5038356;28;20441;-63
2022/11/18 07:44:05;;;;;;;7.10;6.00;;;8.80;99.90;;;;;;5037756;28;20441;-63
2022/11/18 07:46:34;;;;;;;12.00;6.10;;;8.80;99.90;;;;;;5040975;28;20433;-63
2022/11/18 07:49:04;;;;;;;7.80;7.00;;;8.80;99.90;;;;;;5058072;28;20433;-63
2022/11/18 07:51:35;;;;;;;15.30;8.80;;;8.80;99.90;;;;;;5057069;28;20437;-63
2022/11/18 07:54:09;;;;;;;11.17;7.43;;;8.80;99.90;;;;;;5058953;28;20441;-62
2022/11/18 07:56:36;;;;;;;10.83;7.67;;;8.90;99.90;;;;;;5058884;28;20461;-63
2022/11/18 07:59:04;;;;;;;8.03;6.27;;;8.90;99.90;;;;;;5039318;28;20461;-63
2022/11/18 08:01:32;;;;;;;9.47;5.60;;;8.90;99.90;;;;;;5046147;28;20493;-63
2022/11/18 08:04:08;;;;;;;9.93;6.43;;;8.90;99.90;;;;;;5057270;28;20466;-62
2022/11/18 08:06:39;;;;;;;7.93;5.83;;;8.90;99.90;;;;;;5057077;28;20442;-63
2022/11/18 08:09:08;;;;;;;7.33;6.63;;;8.90;99.90;;;;;;5055612;28;20458;-63
2022/11/18 08:11:36;;;;;;;9.63;6.53;;;8.90;99.90;;;;;;5054048;28;20437;-63
2022/11/18 08:14:06;;;;;;;10.67;7.20;;;8.90;99.90;;;;;;5037191;28;20465;-63
2022/11/18 08:16:35;;;;;;;8.67;5.67;;;8.90;99.90;;;;;;5038190;28;20536;-63
2022/11/18 08:19:02;;;;;;;7.47;6.50;;;8.90;99.90;;;;;;5049213;28;20486;-62
2022/11/18 08:21:30;;;;;;;10.50;5.53;;;8.90;99.90;;;;;;5058106;28;20464;-63
2022/11/18 08:23:59;;;;;;;9.10;5.77;;;9.00;99.90;;;;;;5057803;28;20792;-63
2022/11/18 08:26:26;;;;;;;9.03;5.27;;;9.00;99.90;;;;;;5057297;28;20906;-64
2022/11/18 08:28:57;;;;;;;10.07;7.50;;;9.00;99.90;;;;;;5048786;28;20468;-65
2022/11/18 08:31:26;;;;;;;10.67;8.80;;;9.00;99.90;;;;;;5051177;28;20486;-64
2022/11/18 08:33:58;;;;;;;13.03;11.70;;;9.10;99.90;;;;;;5057285;28;20462;-64
2022/11/18 08:36:27;;;;;;;11.47;10.37;;;9.10;99.90;;;;;;5057212;28;20513;-64
2022/11/18 08:38:56;;;;;;;8.57;7.70;;;9.10;99.90;;;;;;5057700;28;20555;-64
2022/11/18 08:41:33;;;;;;;19.93;9.20;;;9.10;99.90;;;;;;5047144;28;20445;-63
2022/11/18 08:44:01;;;;;;;9.73;6.83;;;9.20;99.90;;;;;;5038255;28;20459;-63
2022/11/18 08:46:28;;;;;;;11.27;8.83;;;9.30;99.90;;;;;;5037527;28;20463;-63
2022/11/18 08:48:55;;;;;;;13.13;8.60;;;9.40;99.90;;;;;;5055649;28;20825;-63
2022/11/18 08:51:22;;;;;;;8.67;7.60;;;9.50;99.90;;;;;;5055457;28;20469;-64
2022/11/18 08:53:50;;;;;;;12.37;8.43;;;9.50;99.90;;;;;;5046044;28;20799;-64
2022/11/18 08:56:22;;;;;;;12.67;7.60;;;9.60;99.90;;;;;;5037279;28;20898;-63
2022/11/18 08:58:51;;;;;;;8.20;6.00;;;9.60;99.90;;;;;;5036933;28;20902;-63
2022/11/18 09:01:21;;;;;;;10.00;6.03;;;9.60;99.90;;;;;;5038577;28;20548;-64
2022/11/18 09:03:48;;;;;;;22.73;15.67;;;9.70;99.90;;;;;;5056829;28;20961;-63
2022/11/18 09:06:19;;;;;;;12.13;9.83;;;9.70;99.90;;;;;;5055388;28;20440;-63
2022/11/18 09:08:47;;;;;;;10.50;9.50;;;9.80;99.90;;;;;;5055402;28;20797;-63
2022/11/18 09:11:16;;;;;;;10.60;7.73;;;9.80;99.90;;;;;;5056294;28;20490;-64
2022/11/18 09:13:47;;;;;;;17.23;8.20;;;9.80;99.90;;;;;;5037860;28;20444;-63
2022/11/18 09:16:15;;;;;;;13.67;6.73;;;9.70;99.90;;;;;;5040569;28;20482;-63
2022/11/18 09:18:42;;;;;;;8.90;7.60;;;9.70;99.90;;;;;;5052004;28;20498;-63
2022/11/18 09:21:13;;;;;;;7.40;6.60;;;9.80;99.90;;;;;;5056843;28;20479;-63
2022/11/18 09:23:40;;;;;;;8.23;6.77;;;9.70;99.90;;;;;;5056284;28;20539;-63
2022/11/18 09:26:11;;;;;;;7.53;6.50;;;9.60;99.90;;;;;;5057169;28;20462;-63
2022/11/18 09:28:43;;;;;;;10.60;7.20;;;9.70;99.90;;;;;;5057515;28;20439;-63
2022/11/18 09:31:12;;;;;;;9.20;7.20;;;9.70;99.90;;;;;;5057120;28;20892;-63
2022/11/18 09:33:43;;;;;;;10.27;6.37;;;9.80;99.90;;;;;;5046751;28;20565;-63
2022/11/18 09:36:13;;;;;;;13.33;8.50;;;9.70;99.90;;;;;;5037439;28;20482;-63
2022/11/18 09:38:43;;;;;;;10.93;9.50;;;9.70;99.90;;;;;;5036450;28;20491;-63
2022/11/18 09:41:31;;;;;;;14.17;7.20;;;9.60;99.90;;;;;;5037026;28;20517;-63
2022/11/18 09:44:09;;;;;;;9.50;7.87;;;9.70;99.90;;;;;;5045357;28;20466;-63
2022/11/18 09:46:51;;;;;;;11.30;9.30;;;9.60;99.90;;;;;;5057507;28;20472;-63
2022/11/18 09:49:27;;;;;;;27.67;25.07;;;9.60;99.90;;;;;;5056247;28;20487;-63
2022/11/18 09:51:56;;;;;;;17.80;15.87;;;9.60;99.90;;;;;;5056905;28;20484;-63
2022/11/18 09:54:29;;;;;;;11.63;8.47;;;9.60;99.90;;;;;;5048132;28;20501;-62
2022/11/18 09:56:56;;;;;;;11.63;7.20;;;9.60;99.90;;;;;;5037335;28;20463;-63
2022/11/18 09:59:27;;;;;;;17.40;14.40;;;9.70;99.90;;;;;;5037616;28;20574;-62
2022/11/18 10:01:58;;;;;;;12.57;11.30;;;9.70;99.90;;;;;;5036499;28;20497;-62
2022/11/18 10:04:28;;;;;;;15.93;14.27;;;9.80;99.90;;;;;;5045734;28;20454;-62
2022/11/18 10:06:56;;;;;;;8.90;7.97;;;10.00;99.90;;;;;;5059962;28;20832;-62
2022/11/18 10:09:30;;;;;;;13.37;11.37;;;10.10;99.90;;;;;;5061339;28;20925;-62
2022/11/18 10:12:23;;;;;;;11.10;9.90;;;10.10;99.90;;;;;;5060952;28;20563;-62
2022/11/18 10:15:04;;;;;;;18.07;16.30;;;10.10;99.90;;;;;;5060537;28;20468;-62
2022/11/18 10:17:49;;;;;;;20.73;18.50;;;10.00;99.90;;;;;;5053312;28;20462;-62
2022/11/18 10:20:25;;;;;;;15.23;9.33;;;9.90;99.90;;;;;;5040888;28;20461;-62
2022/11/18 10:22:57;;;;;;;12.53;8.97;;;10.00;99.90;;;;;;5040583;28;20462;-62
2022/11/18 10:25:28;;;;;;;13.13;9.10;;;10.10;99.90;;;;;;5040051;28;20463;-62
2022/11/18 10:27:56;;;;;;;10.50;9.00;;;10.10;99.90;;;;;;5043587;28;20467;-62
2022/11/18 10:30:28;;;;;;;11.67;10.47;;;10.10;99.90;;;;;;5046771;28;20525;-62
2022/11/18 10:33:00;;;;;;;15.77;14.30;;;10.10;99.90;;;;;;5060642;28;20803;-62
2022/11/18 10:35:34;;;;;;;50.13;44.83;;;10.20;99.90;;;;;;5060639;28;20866;-62
2022/11/18 10:38:04;;;;;;;17.73;15.90;;;10.30;99.90;;;;;;5060158;28;20441;-62
2022/11/18 10:40:37;;;;;;;13.93;10.73;;;10.50;99.90;;;;;;5056743;28;20464;-62
2022/11/18 10:43:05;;;;;;;12.53;10.10;;;10.60;99.90;;;;;;5040735;28;20467;-62
2022/11/18 10:45:32;;;;;;;13.33;11.37;;;10.60;99.90;;;;;;5040811;28;20444;-62
2022/11/18 10:48:03;;;;;;;13.40;10.27;;;10.90;99.90;;;;;;5040174;28;20437;-62
2022/11/18 10:50:34;;;;;;;9.70;8.70;;;11.10;99.90;;;;;;5040549;28;20463;-62
2022/11/18 10:53:02;;;;;;;10.07;9.00;;;11.20;99.90;;;;;;5058278;28;20898;-61
2022/11/18 10:55:34;;;;;;;10.90;7.20;;;11.30;99.90;;;;;;5059829;28;20455;-61
2022/11/18 10:58:09;;;;;;;12.57;8.23;;;11.60;99.90;;;;;;5059745;28;20440;-61
2022/11/18 11:00:43;;;;;;;8.60;7.77;;;11.70;99.90;;;;;;5051829;28;20461;-62
2022/11/18 11:03:29;;;;;;;9.73;8.70;;;11.70;99.90;;;;;;5040117;28;21017;-62
2022/11/18 11:06:36;;;;;;;14.27;7.97;;;11.80;99.90;;;;;;5040845;28;20549;-62
2022/11/18 11:09:22;;;;;;;7.73;7.00;;;11.40;93.30;;;;;;5040340;28;20455;-63
2022/11/18 11:12:00;;;;;;;8.50;7.60;;;11.20;1.00;;;;;;5052843;28;20553;-63
2022/11/18 11:14:32;;;;;;;8.80;6.83;;;11.10;1.00;;;;;;5058544;28;20552;-63
2022/11/18 11:17:05;;;;;;;9.87;7.10;;;11.20;1.00;;;;;;5060151;28;20517;-63
2022/11/18 11:19:53;;;;;;;7.53;6.23;;;11.30;15.30;;;;;;5059666;28;20490;-63
2022/11/18 11:22:22;;;;;;;6.13;5.30;;;11.50;1.00;;;;;;5058072;28;20545;-63
2022/11/18 11:24:50;;;;;;;10.83;5.60;;;11.30;1.00;;;;;;5059163;28;20462;-64
2022/11/18 11:27:46;;;;;;;8.47;5.43;;;11.30;1.00;;;;;;5057085;28;20535;-64
2022/11/18 11:30:19;;;;;;;13.67;6.33;;;11.20;1.00;;;;;;5059436;28;20460;-64
2022/11/18 11:33:25;;;;;;;12.37;10.20;;;11.00;1.00;;;;;;5044617;28;20891;-64
2022/11/18 11:36:12;;;;;;;8.63;5.90;;;11.00;1.00;;;;;;5036176;28;20548;-64
2022/11/18 11:38:58;;;;;;;12.70;6.53;;;10.90;1.00;;;;;;5036093;28;20547;-64
2022/11/18 11:41:30;;;;;;;15.27;8.60;;;10.90;1.00;;;;;;5039512;28;20880;-64
2022/11/18 11:44:19;;;;;;;14.60;7.50;;;11.00;1.00;;;;;;5040842;28;20474;-64
2022/11/18 11:50:12;;;;;;;7.80;6.80;;;11.40;1.00;;;;;;5039299;28;20548;-67
2022/11/18 11:52:46;;;;;;;7.20;6.30;;;11.70;1.00;;;;;;5042696;28;20498;-67
2022/11/18 11:55:26;;;;;;;6.23;5.63;;;12.10;1.00;;;;;;5058612;28;20466;-67
2022/11/18 11:58:16;;;;;;;11.10;5.40;;;12.10;1.00;;;;;;5057827;28;20466;-67
2022/11/18 12:00:54;;;;;;;6.30;4.47;;;12.00;1.00;;;;;;5058896;28;20490;-67
2022/11/18 12:03:42;;;;;;;10.03;4.77;;;11.70;1.00;;;;;;5046445;28;20494;-68
2022/11/18 12:06:10;;;;;;;12.80;6.00;;;11.60;1.00;;;;;;5038839;28;20441;-68
2022/11/18 12:08:43;;;;;;;10.23;5.43;;;11.60;1.00;;;;;;5039467;28;20488;-68
2022/11/18 12:11:17;;;;;;;8.63;5.47;;;11.60;1.00;;;;;;5037591;28;20565;-68
2022/11/18 12:13:53;;;;;;;8.53;5.60;;;12.00;1.00;;;;;;5038737;28;20455;-68
2022/11/18 12:16:28;;;;;;;7.30;4.10;;;12.30;1.00;;;;;;5038432;28;20914;-66
2022/11/18 12:19:02;;;;;;;8.13;4.03;;;12.50;1.00;;;;;;5054252;28;20776;-66
2022/11/18 12:22:02;;;;;;;11.80;4.70;;;12.50;1.00;;;;;;5052226;28;20470;-67
2022/11/18 12:24:38;;;;;;;5.30;3.93;;;12.50;1.00;;;;;;5057509;28;20888;-66
2022/11/18 12:27:13;;;;;;;9.30;4.50;;;12.10;1.00;;;;;;5054730;28;20436;-66
2022/11/18 12:29:58;;;;;;;8.30;3.90;;;11.90;1.00;;;;;;5055455;28;20544;-66
2022/11/18 12:32:33;;;;;;;9.50;5.23;;;12.00;1.00;;;;;;5035923;28;20441;-66
2022/11/18 12:35:04;;;;;;;5.90;4.40;;;12.10;1.00;;;;;;5037408;28;20473;-66
2022/11/18 12:37:45;;;;;;;10.23;5.00;;;12.20;1.00;;;;;;5037914;28;20554;-66
2022/11/18 12:40:32;;;;;;;7.90;3.90;;;12.20;1.00;;;;;;5036877;28;20560;-67
2022/11/18 12:45:53;;;;;;;11.13;4.23;;;11.70;1.00;;;;;;5035957;28;20746;-66
2022/11/18 12:48:46;;;;;;;10.57;5.37;;;11.40;1.00;;;;;;5036857;28;20542;-67
2022/11/18 12:51:40;;;;;;;11.93;5.13;;;11.30;1.00;;;;;;5040934;28;20461;-67
2022/11/18 12:54:24;;;;;;;9.30;4.00;;;11.30;1.00;;;;;;5057120;28;20465;-66
2022/11/18 12:56:51;;;;;;;6.67;3.53;;;11.60;1.00;;;;;;5042950;28;20481;-66
2022/11/18 12:59:32;;;;;;;7.00;3.57;;;11.50;1.00;;;;;;5047878;28;20511;-66
2022/11/18 13:02:16;;;;;;;5.63;3.23;;;11.60;1.00;;;;;;5063437;28;20766;-66
2022/11/18 13:04:44;;;;;;;8.03;4.00;;;11.60;1.00;;;;;;5064912;28;20458;-66
2022/11/18 13:09:55;;;;;;;9.67;4.50;;;11.50;1.00;;;;;;5063569;28;20422;-66
2022/11/18 13:12:28;;;;;;;11.90;5.13;;;11.40;1.00;;;;;;5063969;28;20537;-66
2022/11/18 13:17:53;;;;;;;8.43;4.63;;;11.40;1.00;;;;;;5063506;28;20530;-66
2022/11/18 13:20:29;;;;;;;8.23;4.37;;;11.60;1.00;;;;;;5066041;28;20505;-67
2022/11/18 13:25:49;;;;;;;9.10;4.40;;;11.50;1.00;;;;;;5066341;28;20437;-66
2022/11/18 13:28:31;;;;;;;6.97;4.10;;;11.40;1.00;;;;;;5069221;28;20461;-66
2022/11/18 13:31:08;;;;;;;6.50;4.00;;;11.40;1.00;;;;;;5077472;28;20464;-68
2022/11/18 13:33:37;;;;;;;10.37;4.40;;;11.50;1.00;;;;;;5067223;28;20763;-68
2022/11/18 13:36:17;;;;;;;7.13;4.00;;;11.60;1.00;;;;;;5054607;28;20477;-68
2022/11/18 13:38:58;;;;;;;7.57;4.23;;;11.70;1.00;;;;;;5035672;28;20931;-68
2022/11/18 13:41:31;;;;;;;16.63;4.60;;;11.70;1.00;;;;;;5036074;28;20802;-68
2022/11/18 13:44:11;;;;;;;5.17;4.00;;;11.80;1.00;;;;;;5043397;28;20649;-68
2022/11/18 13:46:44;;;;;;;13.00;4.33;;;11.90;1.00;;;;;;5056555;28;20477;-68
2022/11/18 13:49:25;;;;;;;8.80;5.70;;;12.00;1.00;;;;;;5056578;28;20462;-68